sensor_id;sensor_type;location;lat;lon;timestamp;P1;durP1;ratioP1;P2;durP2;ratioP2
80425;SDS011;69766;51.476;5.704;2024-02-15T00:00:09;45.72;;;19.45;;
80425;SDS011;69766;51.476;5.704;2024-02-15T00:02:36;38.00;;;18.65;;
80425;SDS011;69766;51.476;5.704;2024-02-15T00:05:02;38.63;;;17.92;;
80425;SDS011;69766;51.476;5.704;2024-02-15T00:07:28;37.88;;;18.17;;
80425;SDS011;69766;51.476;5.704;2024-02-15T00:09:53;36.00;;;18.15;;
80425;SDS011;69766;51.476;5.704;2024-02-15T00:12:19;36.00;;;18.23;;
80425;SDS011;69766;51.476;5.704;2024-02-15T00:14:45;38.55;;;18.35;;
80425;SDS011;69766;51.476;5.704;2024-02-15T00:17:11;38.90;;;17.60;;
80425;SDS011;69766;51.476;5.704;2024-02-15T00:19:37;33.08;;;16.75;;
80425;SDS011;69766;51.476;5.704;2024-02-15T00:22:06;34.03;;;17.40;;
80425;SDS011;69766;51.476;5.704;2024-02-15T00:24:32;37.03;;;17.10;;
80425;SDS011;69766;51.476;5.704;2024-02-15T00:27:01;32.55;;;16.88;;
80425;SDS011;69766;51.476;5.704;2024-02-15T00:29:27;29.80;;;15.82;;
80425;SDS011;69766;51.476;5.704;2024-02-15T00:31:54;33.47;;;15.80;;
80425;SDS011;69766;51.476;5.704;2024-02-15T00:34:20;31.20;;;16.27;;
80425;SDS011;69766;51.476;5.704;2024-02-15T00:36:47;35.72;;;17.13;;
80425;SDS011;69766;51.476;5.704;2024-02-15T00:39:12;32.22;;;16.02;;
80425;SDS011;69766;51.476;5.704;2024-02-15T00:41:39;33.25;;;15.70;;
80425;SDS011;69766;51.476;5.704;2024-02-15T00:44:08;26.45;;;15.20;;
80425;SDS011;69766;51.476;5.704;2024-02-15T00:46:35;31.27;;;16.52;;
80425;SDS011;69766;51.476;5.704;2024-02-15T00:49:01;32.17;;;16.17;;
80425;SDS011;69766;51.476;5.704;2024-02-15T00:51:29;29.42;;;15.30;;
80425;SDS011;69766;51.476;5.704;2024-02-15T00:53:55;32.85;;;15.13;;
80425;SDS011;69766;51.476;5.704;2024-02-15T00:56:24;33.45;;;14.02;;
80425;SDS011;69766;51.476;5.704;2024-02-15T00:58:54;28.50;;;14.57;;
80425;SDS011;69766;51.476;5.704;2024-02-15T01:01:25;29.75;;;14.02;;
80425;SDS011;69766;51.476;5.704;2024-02-15T01:03:51;29.73;;;13.27;;
80425;SDS011;69766;51.476;5.704;2024-02-15T01:06:17;29.80;;;15.00;;
80425;SDS011;69766;51.476;5.704;2024-02-15T01:08:46;32.55;;;13.75;;
80425;SDS011;69766;51.476;5.704;2024-02-15T01:11:13;31.98;;;12.98;;
80425;SDS011;69766;51.476;5.704;2024-02-15T01:13:39;32.90;;;13.60;;
80425;SDS011;69766;51.476;5.704;2024-02-15T01:16:05;26.52;;;12.80;;
80425;SDS011;69766;51.476;5.704;2024-02-15T01:18:32;30.63;;;12.65;;
80425;SDS011;69766;51.476;5.704;2024-02-15T01:20:58;29.13;;;11.93;;
80425;SDS011;69766;51.476;5.704;2024-02-15T01:23:24;25.77;;;12.35;;
80425;SDS011;69766;51.476;5.704;2024-02-15T01:25:50;30.00;;;11.43;;
80425;SDS011;69766;51.476;5.704;2024-02-15T01:28:19;29.70;;;12.05;;
80425;SDS011;69766;51.476;5.704;2024-02-15T01:30:46;27.10;;;10.25;;
80425;SDS011;69766;51.476;5.704;2024-02-15T01:33:12;24.00;;;10.82;;
80425;SDS011;69766;51.476;5.704;2024-02-15T01:35:38;28.42;;;11.25;;
80425;SDS011;69766;51.476;5.704;2024-02-15T01:38:07;24.67;;;10.07;;
80425;SDS011;69766;51.476;5.704;2024-02-15T01:40:36;24.88;;;9.32;;
80425;SDS011;69766;51.476;5.704;2024-02-15T01:43:03;25.10;;;10.07;;
80425;SDS011;69766;51.476;5.704;2024-02-15T01:45:29;26.27;;;9.18;;
80425;SDS011;69766;51.476;5.704;2024-02-15T01:47:56;22.75;;;9.82;;
80425;SDS011;69766;51.476;5.704;2024-02-15T01:50:22;23.20;;;9.18;;
80425;SDS011;69766;51.476;5.704;2024-02-15T01:52:52;21.00;;;8.98;;
80425;SDS011;69766;51.476;5.704;2024-02-15T01:55:23;19.60;;;8.73;;
80425;SDS011;69766;51.476;5.704;2024-02-15T01:57:52;21.52;;;8.88;;
80425;SDS011;69766;51.476;5.704;2024-02-15T02:00:19;25.70;;;8.85;;
80425;SDS011;69766;51.476;5.704;2024-02-15T02:02:52;19.30;;;8.68;;
80425;SDS011;69766;51.476;5.704;2024-02-15T02:05:24;18.30;;;7.45;;
80425;SDS011;69766;51.476;5.704;2024-02-15T02:07:54;18.17;;;8.15;;
80425;SDS011;69766;51.476;5.704;2024-02-15T02:10:27;21.88;;;8.98;;
80425;SDS011;69766;51.476;5.704;2024-02-15T02:12:57;20.52;;;7.72;;
80425;SDS011;69766;51.476;5.704;2024-02-15T02:15:24;21.38;;;7.90;;
80425;SDS011;69766;51.476;5.704;2024-02-15T02:18:00;22.50;;;7.18;;
80425;SDS011;69766;51.476;5.704;2024-02-15T02:20:26;21.13;;;8.10;;
80425;SDS011;69766;51.476;5.704;2024-02-15T02:22:53;24.10;;;7.75;;
80425;SDS011;69766;51.476;5.704;2024-02-15T02:25:25;18.65;;;8.02;;
80425;SDS011;69766;51.476;5.704;2024-02-15T02:27:53;16.77;;;7.95;;
80425;SDS011;69766;51.476;5.704;2024-02-15T02:30:21;19.52;;;7.30;;
80425;SDS011;69766;51.476;5.704;2024-02-15T02:32:48;15.05;;;7.35;;
80425;SDS011;69766;51.476;5.704;2024-02-15T02:35:14;20.42;;;7.88;;
80425;SDS011;69766;51.476;5.704;2024-02-15T02:37:41;17.02;;;7.07;;
80425;SDS011;69766;51.476;5.704;2024-02-15T02:40:07;20.55;;;7.65;;
80425;SDS011;69766;51.476;5.704;2024-02-15T02:42:52;17.35;;;7.97;;
80425;SDS011;69766;51.476;5.704;2024-02-15T02:45:19;18.67;;;7.00;;
80425;SDS011;69766;51.476;5.704;2024-02-15T02:47:47;20.45;;;7.63;;
80425;SDS011;69766;51.476;5.704;2024-02-15T02:50:22;22.00;;;7.38;;
80425;SDS011;69766;51.476;5.704;2024-02-15T02:52:49;20.27;;;7.70;;
80425;SDS011;69766;51.476;5.704;2024-02-15T02:55:15;19.92;;;7.78;;
80425;SDS011;69766;51.476;5.704;2024-02-15T02:57:41;19.00;;;7.85;;
80425;SDS011;69766;51.476;5.704;2024-02-15T03:00:08;18.70;;;7.18;;
80425;SDS011;69766;51.476;5.704;2024-02-15T03:02:43;14.55;;;7.07;;
80425;SDS011;69766;51.476;5.704;2024-02-15T03:05:09;17.95;;;6.93;;
80425;SDS011;69766;51.476;5.704;2024-02-15T03:07:36;17.45;;;7.25;;
80425;SDS011;69766;51.476;5.704;2024-02-15T03:10:06;21.60;;;8.20;;
80425;SDS011;69766;51.476;5.704;2024-02-15T03:12:36;22.75;;;7.90;;
80425;SDS011;69766;51.476;5.704;2024-02-15T03:15:06;17.27;;;7.80;;
80425;SDS011;69766;51.476;5.704;2024-02-15T03:17:43;19.05;;;6.35;;
80425;SDS011;69766;51.476;5.704;2024-02-15T03:20:12;18.30;;;6.43;;
80425;SDS011;69766;51.476;5.704;2024-02-15T03:23:00;14.80;;;7.20;;
80425;SDS011;69766;51.476;5.704;2024-02-15T03:25:27;14.32;;;6.50;;
80425;SDS011;69766;51.476;5.704;2024-02-15T03:27:54;13.02;;;6.25;;
80425;SDS011;69766;51.476;5.704;2024-02-15T03:30:22;17.23;;;6.00;;
80425;SDS011;69766;51.476;5.704;2024-02-15T03:32:50;14.90;;;6.05;;
80425;SDS011;69766;51.476;5.704;2024-02-15T03:35:22;15.57;;;6.10;;
80425;SDS011;69766;51.476;5.704;2024-02-15T03:37:50;13.70;;;5.10;;
80425;SDS011;69766;51.476;5.704;2024-02-15T03:40:16;18.85;;;5.63;;
80425;SDS011;69766;51.476;5.704;2024-02-15T03:42:43;16.67;;;5.15;;
80425;SDS011;69766;51.476;5.704;2024-02-15T03:45:09;14.18;;;5.35;;
80425;SDS011;69766;51.476;5.704;2024-02-15T03:47:36;13.35;;;5.05;;
80425;SDS011;69766;51.476;5.704;2024-02-15T03:50:05;9.80;;;4.80;;
80425;SDS011;69766;51.476;5.704;2024-02-15T03:52:34;12.43;;;4.88;;
80425;SDS011;69766;51.476;5.704;2024-02-15T03:55:01;19.75;;;5.80;;
80425;SDS011;69766;51.476;5.704;2024-02-15T03:57:27;14.60;;;4.75;;
80425;SDS011;69766;51.476;5.704;2024-02-15T03:59:53;13.82;;;4.80;;
80425;SDS011;69766;51.476;5.704;2024-02-15T04:02:22;19.77;;;5.32;;
80425;SDS011;69766;51.476;5.704;2024-02-15T04:04:54;16.88;;;5.00;;
80425;SDS011;69766;51.476;5.704;2024-02-15T04:07:20;14.25;;;4.43;;
80425;SDS011;69766;51.476;5.704;2024-02-15T04:09:48;10.35;;;4.25;;
80425;SDS011;69766;51.476;5.704;2024-02-15T04:12:14;17.92;;;4.45;;
80425;SDS011;69766;51.476;5.704;2024-02-15T04:14:43;10.85;;;4.05;;
80425;SDS011;69766;51.476;5.704;2024-02-15T04:17:12;18.42;;;4.65;;
80425;SDS011;69766;51.476;5.704;2024-02-15T04:19:43;10.05;;;4.53;;
80425;SDS011;69766;51.476;5.704;2024-02-15T04:22:11;10.65;;;4.03;;
80425;SDS011;69766;51.476;5.704;2024-02-15T04:24:37;11.25;;;3.70;;
80425;SDS011;69766;51.476;5.704;2024-02-15T04:27:06;12.23;;;4.15;;
80425;SDS011;69766;51.476;5.704;2024-02-15T04:29:39;12.10;;;4.30;;
80425;SDS011;69766;51.476;5.704;2024-02-15T04:32:06;12.60;;;3.25;;
80425;SDS011;69766;51.476;5.704;2024-02-15T04:34:36;9.83;;;3.33;;
80425;SDS011;69766;51.476;5.704;2024-02-15T04:37:02;13.23;;;5.03;;
80425;SDS011;69766;51.476;5.704;2024-02-15T04:39:38;10.10;;;3.38;;
80425;SDS011;69766;51.476;5.704;2024-02-15T04:42:03;7.18;;;3.25;;
80425;SDS011;69766;51.476;5.704;2024-02-15T04:44:36;9.88;;;3.00;;
80425;SDS011;69766;51.476;5.704;2024-02-15T04:47:04;15.27;;;3.38;;
80425;SDS011;69766;51.476;5.704;2024-02-15T04:49:30;10.60;;;2.95;;
80425;SDS011;69766;51.476;5.704;2024-02-15T04:51:56;11.13;;;3.60;;
80425;SDS011;69766;51.476;5.704;2024-02-15T04:54:22;8.60;;;3.28;;
80425;SDS011;69766;51.476;5.704;2024-02-15T04:56:49;10.23;;;3.67;;
80425;SDS011;69766;51.476;5.704;2024-02-15T04:59:19;13.10;;;4.20;;
80425;SDS011;69766;51.476;5.704;2024-02-15T05:01:46;7.65;;;3.15;;
80425;SDS011;69766;51.476;5.704;2024-02-15T05:04:12;10.18;;;3.53;;
80425;SDS011;69766;51.476;5.704;2024-02-15T05:06:39;9.02;;;3.35;;
80425;SDS011;69766;51.476;5.704;2024-02-15T05:09:05;13.30;;;3.75;;
80425;SDS011;69766;51.476;5.704;2024-02-15T05:14:06;12.32;;;4.60;;
80425;SDS011;69766;51.476;5.704;2024-02-15T05:16:35;9.18;;;3.58;;
80425;SDS011;69766;51.476;5.704;2024-02-15T05:19:07;12.55;;;3.45;;
80425;SDS011;69766;51.476;5.704;2024-02-15T05:21:36;9.93;;;4.03;;
80425;SDS011;69766;51.476;5.704;2024-02-15T05:24:02;9.93;;;3.75;;
80425;SDS011;69766;51.476;5.704;2024-02-15T05:26:29;10.93;;;3.65;;
80425;SDS011;69766;51.476;5.704;2024-02-15T05:28:55;8.73;;;3.30;;
80425;SDS011;69766;51.476;5.704;2024-02-15T05:31:22;11.52;;;4.47;;
80425;SDS011;69766;51.476;5.704;2024-02-15T05:33:51;12.50;;;3.30;;
80425;SDS011;69766;51.476;5.704;2024-02-15T05:36:18;12.32;;;3.72;;
80425;SDS011;69766;51.476;5.704;2024-02-15T05:38:45;10.65;;;3.72;;
80425;SDS011;69766;51.476;5.704;2024-02-15T05:41:15;8.20;;;3.42;;
80425;SDS011;69766;51.476;5.704;2024-02-15T05:43:41;10.65;;;3.80;;
80425;SDS011;69766;51.476;5.704;2024-02-15T05:46:07;9.35;;;3.33;;
80425;SDS011;69766;51.476;5.704;2024-02-15T05:48:34;10.35;;;3.28;;
80425;SDS011;69766;51.476;5.704;2024-02-15T05:51:00;10.65;;;3.42;;
80425;SDS011;69766;51.476;5.704;2024-02-15T05:53:27;11.38;;;3.47;;
80425;SDS011;69766;51.476;5.704;2024-02-15T05:55:54;8.77;;;3.60;;
80425;SDS011;69766;51.476;5.704;2024-02-15T05:58:20;11.05;;;3.50;;
80425;SDS011;69766;51.476;5.704;2024-02-15T06:00:46;9.63;;;2.80;;
80425;SDS011;69766;51.476;5.704;2024-02-15T06:03:15;12.00;;;3.03;;
80425;SDS011;69766;51.476;5.704;2024-02-15T06:05:41;7.60;;;3.00;;
80425;SDS011;69766;51.476;5.704;2024-02-15T06:08:07;7.57;;;3.00;;
80425;SDS011;69766;51.476;5.704;2024-02-15T06:10:33;6.35;;;2.50;;
80425;SDS011;69766;51.476;5.704;2024-02-15T06:13:01;8.60;;;3.08;;
80425;SDS011;69766;51.476;5.704;2024-02-15T06:15:27;9.38;;;3.45;;
80425;SDS011;69766;51.476;5.704;2024-02-15T06:17:53;10.55;;;3.20;;
80425;SDS011;69766;51.476;5.704;2024-02-15T06:20:18;12.90;;;2.88;;
80425;SDS011;69766;51.476;5.704;2024-02-15T06:22:45;9.43;;;3.70;;
80425;SDS011;69766;51.476;5.704;2024-02-15T06:25:11;12.02;;;3.35;;
80425;SDS011;69766;51.476;5.704;2024-02-15T06:27:38;7.50;;;3.28;;
80425;SDS011;69766;51.476;5.704;2024-02-15T06:30:10;10.73;;;3.35;;
80425;SDS011;69766;51.476;5.704;2024-02-15T06:32:55;10.10;;;3.40;;
80425;SDS011;69766;51.476;5.704;2024-02-15T06:35:40;16.80;;;4.00;;
80425;SDS011;69766;51.476;5.704;2024-02-15T06:38:24;10.43;;;3.70;;
80425;SDS011;69766;51.476;5.704;2024-02-15T06:41:12;10.02;;;3.97;;
80425;SDS011;69766;51.476;5.704;2024-02-15T06:43:38;9.52;;;4.43;;
80425;SDS011;69766;51.476;5.704;2024-02-15T06:46:08;7.93;;;3.90;;
80425;SDS011;69766;51.476;5.704;2024-02-15T06:48:34;13.30;;;5.13;;
80425;SDS011;69766;51.476;5.704;2024-02-15T06:51:01;10.02;;;3.83;;
80425;SDS011;69766;51.476;5.704;2024-02-15T06:53:28;12.05;;;3.90;;
80425;SDS011;69766;51.476;5.704;2024-02-15T06:55:55;10.63;;;4.40;;
80425;SDS011;69766;51.476;5.704;2024-02-15T06:58:21;12.55;;;3.78;;
80425;SDS011;69766;51.476;5.704;2024-02-15T07:00:47;11.02;;;3.97;;
80425;SDS011;69766;51.476;5.704;2024-02-15T07:03:15;9.70;;;3.75;;
80425;SDS011;69766;51.476;5.704;2024-02-15T07:05:42;12.43;;;4.00;;
80425;SDS011;69766;51.476;5.704;2024-02-15T07:08:08;11.60;;;4.45;;
80425;SDS011;69766;51.476;5.704;2024-02-15T07:10:38;13.15;;;4.07;;
80425;SDS011;69766;51.476;5.704;2024-02-15T07:13:04;14.93;;;3.90;;
80425;SDS011;69766;51.476;5.704;2024-02-15T07:15:33;7.35;;;3.33;;
80425;SDS011;69766;51.476;5.704;2024-02-15T07:18:03;8.65;;;2.95;;
80425;SDS011;69766;51.476;5.704;2024-02-15T07:20:31;9.63;;;3.20;;
80425;SDS011;69766;51.476;5.704;2024-02-15T07:22:57;8.63;;;3.33;;
80425;SDS011;69766;51.476;5.704;2024-02-15T07:25:23;10.40;;;2.97;;
80425;SDS011;69766;51.476;5.704;2024-02-15T07:27:49;10.90;;;3.53;;
80425;SDS011;69766;51.476;5.704;2024-02-15T07:30:14;11.43;;;3.78;;
80425;SDS011;69766;51.476;5.704;2024-02-15T07:32:40;11.00;;;3.88;;
80425;SDS011;69766;51.476;5.704;2024-02-15T07:35:06;9.48;;;4.30;;
80425;SDS011;69766;51.476;5.704;2024-02-15T07:37:32;14.02;;;3.95;;
80425;SDS011;69766;51.476;5.704;2024-02-15T07:40:01;9.02;;;3.88;;
80425;SDS011;69766;51.476;5.704;2024-02-15T07:42:32;9.23;;;3.70;;
80425;SDS011;69766;51.476;5.704;2024-02-15T07:44:59;11.32;;;3.90;;
80425;SDS011;69766;51.476;5.704;2024-02-15T07:47:25;12.60;;;4.30;;
80425;SDS011;69766;51.476;5.704;2024-02-15T07:49:51;9.57;;;3.70;;
80425;SDS011;69766;51.476;5.704;2024-02-15T07:52:17;11.00;;;3.80;;
80425;SDS011;69766;51.476;5.704;2024-02-15T07:54:44;11.13;;;4.03;;
80425;SDS011;69766;51.476;5.704;2024-02-15T07:57:09;11.10;;;4.70;;
80425;SDS011;69766;51.476;5.704;2024-02-15T07:59:36;10.68;;;3.25;;
80425;SDS011;69766;51.476;5.704;2024-02-15T08:02:04;9.15;;;3.67;;
80425;SDS011;69766;51.476;5.704;2024-02-15T08:04:30;9.93;;;4.13;;
80425;SDS011;69766;51.476;5.704;2024-02-15T08:06:56;8.63;;;3.95;;
80425;SDS011;69766;51.476;5.704;2024-02-15T08:09:22;13.30;;;4.57;;
80425;SDS011;69766;51.476;5.704;2024-02-15T08:11:50;16.73;;;4.93;;
80425;SDS011;69766;51.476;5.704;2024-02-15T08:14:16;13.95;;;4.70;;
80425;SDS011;69766;51.476;5.704;2024-02-15T08:16:41;11.77;;;4.43;;
80425;SDS011;69766;51.476;5.704;2024-02-15T08:19:07;14.85;;;4.57;;
80425;SDS011;69766;51.476;5.704;2024-02-15T08:21:33;13.00;;;4.70;;
80425;SDS011;69766;51.476;5.704;2024-02-15T08:24:01;9.90;;;4.13;;
80425;SDS011;69766;51.476;5.704;2024-02-15T08:26:39;9.57;;;4.05;;
80425;SDS011;69766;51.476;5.704;2024-02-15T08:29:06;13.25;;;4.25;;
80425;SDS011;69766;51.476;5.704;2024-02-15T08:31:32;8.18;;;3.47;;
80425;SDS011;69766;51.476;5.704;2024-02-15T08:34:04;8.63;;;3.85;;
80425;SDS011;69766;51.476;5.704;2024-02-15T08:36:30;11.07;;;3.72;;
80425;SDS011;69766;51.476;5.704;2024-02-15T08:38:56;11.32;;;3.92;;
80425;SDS011;69766;51.476;5.704;2024-02-15T08:41:22;13.23;;;4.32;;
80425;SDS011;69766;51.476;5.704;2024-02-15T08:43:51;11.70;;;4.32;;
80425;SDS011;69766;51.476;5.704;2024-02-15T08:46:17;9.85;;;3.85;;
80425;SDS011;69766;51.476;5.704;2024-02-15T08:48:43;9.93;;;3.60;;
80425;SDS011;69766;51.476;5.704;2024-02-15T08:51:09;15.13;;;3.90;;
80425;SDS011;69766;51.476;5.704;2024-02-15T08:53:35;10.90;;;4.22;;
80425;SDS011;69766;51.476;5.704;2024-02-15T08:56:04;12.98;;;4.10;;
80425;SDS011;69766;51.476;5.704;2024-02-15T08:58:30;9.98;;;4.00;;
80425;SDS011;69766;51.476;5.704;2024-02-15T09:00:56;10.73;;;3.50;;
80425;SDS011;69766;51.476;5.704;2024-02-15T09:03:22;8.68;;;3.67;;
80425;SDS011;69766;51.476;5.704;2024-02-15T09:05:48;9.88;;;3.80;;
80425;SDS011;69766;51.476;5.704;2024-02-15T09:08:13;9.23;;;3.50;;
80425;SDS011;69766;51.476;5.704;2024-02-15T09:10:40;10.35;;;4.25;;
80425;SDS011;69766;51.476;5.704;2024-02-15T09:13:07;8.38;;;2.83;;
80425;SDS011;69766;51.476;5.704;2024-02-15T09:15:33;9.50;;;3.50;;
80425;SDS011;69766;51.476;5.704;2024-02-15T09:17:59;10.05;;;3.75;;
80425;SDS011;69766;51.476;5.704;2024-02-15T09:20:25;11.05;;;3.53;;
80425;SDS011;69766;51.476;5.704;2024-02-15T09:22:53;9.15;;;3.33;;
80425;SDS011;69766;51.476;5.704;2024-02-15T09:25:27;10.25;;;2.95;;
80425;SDS011;69766;51.476;5.704;2024-02-15T09:27:52;5.47;;;2.70;;
80425;SDS011;69766;51.476;5.704;2024-02-15T09:30:21;8.55;;;3.15;;
80425;SDS011;69766;51.476;5.704;2024-02-15T09:32:49;6.65;;;3.08;;
80425;SDS011;69766;51.476;5.704;2024-02-15T09:35:15;11.10;;;2.80;;
80425;SDS011;69766;51.476;5.704;2024-02-15T09:37:45;6.55;;;2.40;;
80425;SDS011;69766;51.476;5.704;2024-02-15T09:40:14;7.72;;;2.40;;
80425;SDS011;69766;51.476;5.704;2024-02-15T09:42:41;5.47;;;2.22;;
80425;SDS011;69766;51.476;5.704;2024-02-15T09:45:09;9.38;;;2.60;;
80425;SDS011;69766;51.476;5.704;2024-02-15T09:47:37;5.38;;;1.90;;
80425;SDS011;69766;51.476;5.704;2024-02-15T09:50:06;6.53;;;2.03;;
80425;SDS011;69766;51.476;5.704;2024-02-15T09:52:32;5.38;;;1.75;;
80425;SDS011;69766;51.476;5.704;2024-02-15T09:55:02;3.97;;;1.75;;
80425;SDS011;69766;51.476;5.704;2024-02-15T09:57:29;5.88;;;1.88;;
80425;SDS011;69766;51.476;5.704;2024-02-15T09:59:57;5.60;;;1.70;;
80425;SDS011;69766;51.476;5.704;2024-02-15T10:02:25;5.75;;;1.80;;
80425;SDS011;69766;51.476;5.704;2024-02-15T10:04:52;7.20;;;1.92;;
80425;SDS011;69766;51.476;5.704;2024-02-15T10:07:21;6.15;;;1.80;;
80425;SDS011;69766;51.476;5.704;2024-02-15T10:09:48;7.47;;;2.20;;
80425;SDS011;69766;51.476;5.704;2024-02-15T10:12:14;5.45;;;1.70;;
80425;SDS011;69766;51.476;5.704;2024-02-15T10:14:48;7.18;;;2.00;;
80425;SDS011;69766;51.476;5.704;2024-02-15T10:17:20;4.43;;;1.92;;
80425;SDS011;69766;51.476;5.704;2024-02-15T10:22:41;7.53;;;1.85;;
80425;SDS011;69766;51.476;5.704;2024-02-15T10:25:13;4.75;;;1.67;;
80425;SDS011;69766;51.476;5.704;2024-02-15T10:27:40;4.38;;;1.83;;
80425;SDS011;69766;51.476;5.704;2024-02-15T10:32:43;7.22;;;1.90;;
80425;SDS011;69766;51.476;5.704;2024-02-15T10:35:22;5.38;;;1.73;;
80425;SDS011;69766;51.476;5.704;2024-02-15T10:37:48;7.60;;;1.95;;
80425;SDS011;69766;51.476;5.704;2024-02-15T10:40:18;6.97;;;1.70;;
80425;SDS011;69766;51.476;5.704;2024-02-15T10:42:48;6.25;;;1.80;;
80425;SDS011;69766;51.476;5.704;2024-02-15T10:45:16;5.20;;;1.60;;
80425;SDS011;69766;51.476;5.704;2024-02-15T10:47:45;8.10;;;1.90;;
80425;SDS011;69766;51.476;5.704;2024-02-15T10:50:12;7.65;;;1.75;;
80425;SDS011;69766;51.476;5.704;2024-02-15T10:52:43;6.57;;;2.58;;
80425;SDS011;69766;51.476;5.704;2024-02-15T10:58:05;7.47;;;2.00;;
80425;SDS011;69766;51.476;5.704;2024-02-15T11:00:32;5.15;;;1.27;;
80425;SDS011;69766;51.476;5.704;2024-02-15T11:03:03;8.30;;;2.33;;
80425;SDS011;69766;51.476;5.704;2024-02-15T11:05:33;4.38;;;1.50;;
80425;SDS011;69766;51.476;5.704;2024-02-15T11:08:09;5.43;;;1.58;;
80425;SDS011;69766;51.476;5.704;2024-02-15T11:10:36;3.45;;;1.40;;
80425;SDS011;69766;51.476;5.704;2024-02-15T11:13:04;4.22;;;1.30;;
80425;SDS011;69766;51.476;5.704;2024-02-15T11:18:06;4.63;;;1.38;;
80425;SDS011;69766;51.476;5.704;2024-02-15T11:22:58;4.05;;;1.23;;
80425;SDS011;69766;51.476;5.704;2024-02-15T11:25:32;5.50;;;1.45;;
80425;SDS011;69766;51.476;5.704;2024-02-15T11:30:50;3.60;;;1.17;;
80425;SDS011;69766;51.476;5.704;2024-02-15T11:33:32;2.85;;;1.33;;
80425;SDS011;69766;51.476;5.704;2024-02-15T11:38:30;5.95;;;1.52;;
80425;SDS011;69766;51.476;5.704;2024-02-15T11:43:45;3.45;;;1.15;;
80425;SDS011;69766;51.476;5.704;2024-02-15T11:46:17;4.82;;;1.23;;
80425;SDS011;69766;51.476;5.704;2024-02-15T11:48:47;4.95;;;1.13;;
80425;SDS011;69766;51.476;5.704;2024-02-15T11:51:26;4.03;;;0.83;;
80425;SDS011;69766;51.476;5.704;2024-02-15T11:54:07;5.15;;;1.40;;
80425;SDS011;69766;51.476;5.704;2024-02-15T11:56:57;4.85;;;1.00;;
80425;SDS011;69766;51.476;5.704;2024-02-15T11:59:39;3.67;;;1.27;;
80425;SDS011;69766;51.476;5.704;2024-02-15T12:02:18;5.65;;;1.50;;
80425;SDS011;69766;51.476;5.704;2024-02-15T12:05:05;1.98;;;1.23;;
80425;SDS011;69766;51.476;5.704;2024-02-15T12:07:50;4.18;;;1.30;;
80425;SDS011;69766;51.476;5.704;2024-02-15T12:10:34;5.32;;;1.02;;
80425;SDS011;69766;51.476;5.704;2024-02-15T12:13:18;4.53;;;1.05;;
80425;SDS011;69766;51.476;5.704;2024-02-15T12:16:03;3.70;;;0.90;;
80425;SDS011;69766;51.476;5.704;2024-02-15T12:18:48;2.50;;;0.90;;
80425;SDS011;69766;51.476;5.704;2024-02-15T12:21:18;2.70;;;0.80;;
80425;SDS011;69766;51.476;5.704;2024-02-15T12:23:48;4.28;;;1.05;;
80425;SDS011;69766;51.476;5.704;2024-02-15T12:26:20;2.97;;;0.85;;
80425;SDS011;69766;51.476;5.704;2024-02-15T12:28:52;2.92;;;1.00;;
80425;SDS011;69766;51.476;5.704;2024-02-15T12:31:23;5.05;;;1.20;;
80425;SDS011;69766;51.476;5.704;2024-02-15T12:36:31;2.47;;;1.05;;
80425;SDS011;69766;51.476;5.704;2024-02-15T12:39:04;5.85;;;1.35;;
80425;SDS011;69766;51.476;5.704;2024-02-15T12:41:41;4.47;;;1.00;;
80425;SDS011;69766;51.476;5.704;2024-02-15T12:44:15;2.85;;;1.20;;
80425;SDS011;69766;51.476;5.704;2024-02-15T12:46:41;3.03;;;0.80;;
80425;SDS011;69766;51.476;5.704;2024-02-15T12:49:12;5.10;;;1.00;;
80425;SDS011;69766;51.476;5.704;2024-02-15T12:51:49;4.72;;;0.93;;
80425;SDS011;69766;51.476;5.704;2024-02-15T12:54:22;5.07;;;1.27;;
80425;SDS011;69766;51.476;5.704;2024-02-15T12:56:48;5.47;;;1.10;;
80425;SDS011;69766;51.476;5.704;2024-02-15T12:59:17;7.90;;;0.98;;
80425;SDS011;69766;51.476;5.704;2024-02-15T13:01:44;5.53;;;1.15;;
80425;SDS011;69766;51.476;5.704;2024-02-15T13:04:21;4.97;;;1.35;;
80425;SDS011;69766;51.476;5.704;2024-02-15T13:06:49;6.03;;;1.35;;
80425;SDS011;69766;51.476;5.704;2024-02-15T13:09:14;5.57;;;1.10;;
80425;SDS011;69766;51.476;5.704;2024-02-15T13:11:40;4.95;;;1.20;;
80425;SDS011;69766;51.476;5.704;2024-02-15T13:14:05;3.38;;;1.00;;
80425;SDS011;69766;51.476;5.704;2024-02-15T13:16:31;3.80;;;0.98;;
80425;SDS011;69766;51.476;5.704;2024-02-15T13:18:56;4.65;;;1.30;;
80425;SDS011;69766;51.476;5.704;2024-02-15T13:21:23;3.47;;;1.10;;
80425;SDS011;69766;51.476;5.704;2024-02-15T13:23:55;3.90;;;0.98;;
80425;SDS011;69766;51.476;5.704;2024-02-15T13:26:21;5.13;;;1.10;;
80425;SDS011;69766;51.476;5.704;2024-02-15T13:28:49;4.30;;;1.30;;
80425;SDS011;69766;51.476;5.704;2024-02-15T13:31:15;4.13;;;1.20;;
80425;SDS011;69766;51.476;5.704;2024-02-15T13:33:40;3.95;;;1.15;;
80425;SDS011;69766;51.476;5.704;2024-02-15T13:36:15;4.88;;;1.40;;
80425;SDS011;69766;51.476;5.704;2024-02-15T13:38:41;6.68;;;1.52;;
80425;SDS011;69766;51.476;5.704;2024-02-15T13:41:07;4.82;;;1.48;;
80425;SDS011;69766;51.476;5.704;2024-02-15T13:43:33;3.05;;;1.42;;
80425;SDS011;69766;51.476;5.704;2024-02-15T13:45:59;5.32;;;1.33;;
80425;SDS011;69766;51.476;5.704;2024-02-15T13:48:27;3.60;;;1.30;;
80425;SDS011;69766;51.476;5.704;2024-02-15T13:50:55;3.58;;;1.30;;
80425;SDS011;69766;51.476;5.704;2024-02-15T13:53:21;1.80;;;0.80;;
80425;SDS011;69766;51.476;5.704;2024-02-15T13:55:47;4.72;;;1.30;;
80425;SDS011;69766;51.476;5.704;2024-02-15T13:58:12;2.83;;;1.15;;
80425;SDS011;69766;51.476;5.704;2024-02-15T14:00:39;4.50;;;1.27;;
80425;SDS011;69766;51.476;5.704;2024-02-15T14:03:07;4.38;;;1.02;;
80425;SDS011;69766;51.476;5.704;2024-02-15T14:05:35;3.42;;;1.00;;
80425;SDS011;69766;51.476;5.704;2024-02-15T14:08:02;3.63;;;0.95;;
80425;SDS011;69766;51.476;5.704;2024-02-15T14:10:34;3.38;;;1.05;;
80425;SDS011;69766;51.476;5.704;2024-02-15T14:13:01;3.60;;;0.93;;
80425;SDS011;69766;51.476;5.704;2024-02-15T14:15:32;4.07;;;1.08;;
80425;SDS011;69766;51.476;5.704;2024-02-15T14:18:05;3.20;;;0.85;;
80425;SDS011;69766;51.476;5.704;2024-02-15T14:20:31;4.25;;;1.00;;
80425;SDS011;69766;51.476;5.704;2024-02-15T14:22:57;2.45;;;0.82;;
80425;SDS011;69766;51.476;5.704;2024-02-15T14:25:23;3.60;;;0.90;;
80425;SDS011;69766;51.476;5.704;2024-02-15T14:27:56;3.03;;;0.90;;
80425;SDS011;69766;51.476;5.704;2024-02-15T14:30:23;3.95;;;0.85;;
80425;SDS011;69766;51.476;5.704;2024-02-15T14:33:07;4.78;;;1.00;;
80425;SDS011;69766;51.476;5.704;2024-02-15T14:35:36;6.40;;;1.80;;
80425;SDS011;69766;51.476;5.704;2024-02-15T14:38:04;3.90;;;1.00;;
80425;SDS011;69766;51.476;5.704;2024-02-15T14:40:45;3.53;;;0.98;;
80425;SDS011;69766;51.476;5.704;2024-02-15T14:43:18;2.22;;;0.90;;
80425;SDS011;69766;51.476;5.704;2024-02-15T14:45:48;4.90;;;1.10;;
80425;SDS011;69766;51.476;5.704;2024-02-15T14:48:14;5.28;;;1.20;;
80425;SDS011;69766;51.476;5.704;2024-02-15T14:50:42;3.22;;;1.02;;
80425;SDS011;69766;51.476;5.704;2024-02-15T14:53:09;6.55;;;1.25;;
80425;SDS011;69766;51.476;5.704;2024-02-15T14:55:35;5.47;;;1.33;;
80425;SDS011;69766;51.476;5.704;2024-02-15T14:58:03;4.32;;;1.10;;
80425;SDS011;69766;51.476;5.704;2024-02-15T15:00:31;4.10;;;1.10;;
80425;SDS011;69766;51.476;5.704;2024-02-15T15:02:56;3.63;;;1.00;;
80425;SDS011;69766;51.476;5.704;2024-02-15T15:05:22;6.05;;;1.20;;
80425;SDS011;69766;51.476;5.704;2024-02-15T15:08:07;3.42;;;1.30;;
80425;SDS011;69766;51.476;5.704;2024-02-15T15:10:51;5.57;;;1.20;;
80425;SDS011;69766;51.476;5.704;2024-02-15T15:13:36;3.95;;;1.10;;
80425;SDS011;69766;51.476;5.704;2024-02-15T15:16:02;3.25;;;1.00;;